createdAt,value
2018-11-22T00:01:50.233Z,17.30
2018-11-22T00:04:17.543Z,15.20
2018-11-22T00:06:44.807Z,14.07
2018-11-22T00:09:12.097Z,16.97
2018-11-22T00:11:40.073Z,14.00
2018-11-22T00:14:07.979Z,14.18
2018-11-22T00:16:35.746Z,15.03
2018-11-22T00:19:03.273Z,18.40
2018-11-22T00:21:31.116Z,15.80
2018-11-22T00:23:58.994Z,12.58
2018-11-22T00:26:27.768Z,17.15
2018-11-22T00:28:55.258Z,19.05
2018-11-22T00:31:22.866Z,16.82
2018-11-22T00:33:50.360Z,15.80
2018-11-22T00:36:17.868Z,14.80
2018-11-22T00:38:45.716Z,14.70
2018-11-22T00:41:13.642Z,14.03
2018-11-22T00:43:41.110Z,13.98
2018-11-22T00:46:09.255Z,16.12
2018-11-22T00:48:37.017Z,15.13
2018-11-22T00:51:04.558Z,15.15
2018-11-22T00:53:32.384Z,18.55
2018-11-22T00:56:00.255Z,16.60
2018-11-22T00:58:28.088Z,14.50
2018-11-22T01:00:55.306Z,17.00
2018-11-22T01:03:23.100Z,20.62
2018-11-22T01:05:50.315Z,18.70
2018-11-22T01:08:18.102Z,20.57
2018-11-22T01:10:45.447Z,17.50
2018-11-22T01:13:13.571Z,17.42
2018-11-22T01:15:41.159Z,18.52
2018-11-22T01:18:08.474Z,18.65
2018-11-22T01:20:35.955Z,13.58
2018-11-22T01:23:03.749Z,15.60
2018-11-22T01:25:31.854Z,16.60
2018-11-22T01:27:59.090Z,16.62
2018-11-22T01:30:26.884Z,14.38
2018-11-22T01:32:55.315Z,14.98
2018-11-22T01:35:23.472Z,16.95
2018-11-22T01:37:51.333Z,14.58
2018-11-22T01:40:20.226Z,14.98
2018-11-22T01:42:48.096Z,14.18
2018-11-22T01:45:16.760Z,14.60
2018-11-22T01:47:44.245Z,14.53
2018-11-22T01:50:13.102Z,15.72
2018-11-22T01:52:40.650Z,15.53
2018-11-22T01:55:09.921Z,16.37
2018-11-22T01:57:38.186Z,15.78
2018-11-22T02:00:08.667Z,15.75
2018-11-22T02:02:36.148Z,16.55
2018-11-22T02:05:04.396Z,14.73
2018-11-22T02:07:31.905Z,15.28
2018-11-22T02:09:59.115Z,17.57
2018-11-22T02:12:26.901Z,13.18
2018-11-22T02:14:55.032Z,15.28
2018-11-22T02:17:22.545Z,16.35
2018-11-22T02:19:50.915Z,16.35
2018-11-22T02:22:18.506Z,16.60
2018-11-22T02:24:45.990Z,16.62
2018-11-22T02:27:13.782Z,18.30
2018-11-22T02:29:41.279Z,16.15
2018-11-22T02:32:08.765Z,16.60
2018-11-22T02:34:35.996Z,19.65
2018-11-22T02:37:03.475Z,21.15
2018-11-22T02:39:31.357Z,20.95
2018-11-22T02:41:58.830Z,19.95
2018-11-22T02:44:26.637Z,21.68
2018-11-22T02:46:54.122Z,20.45
2018-11-22T02:49:22.170Z,19.25
2018-11-22T02:51:49.778Z,20.60
2018-11-22T02:54:17.621Z,20.90
2018-11-22T02:56:45.417Z,21.17
2018-11-22T02:59:12.605Z,22.67
2018-11-22T03:01:40.177Z,22.15
2018-11-22T03:04:07.653Z,22.65
2018-11-22T03:06:35.160Z,21.05
2018-11-22T03:09:03.798Z,22.27
2018-11-22T03:11:31.716Z,19.75
2018-11-22T03:13:59.526Z,22.17
2018-11-22T03:16:27.044Z,19.15
2018-11-22T03:18:55.067Z,23.38
2018-11-22T03:21:22.595Z,22.62
2018-11-22T03:23:50.372Z,20.17
2018-11-22T03:26:17.840Z,21.73
2018-11-22T03:28:45.069Z,23.83
2018-11-22T03:31:12.571Z,23.57
2018-11-22T03:33:40.089Z,23.92
2018-11-22T03:36:07.307Z,23.40
2018-11-22T03:38:35.374Z,24.25
2018-11-22T03:41:02.870Z,20.95
2018-11-22T03:43:30.098Z,21.25
2018-11-22T03:45:58.155Z,22.60
2018-11-22T03:48:26.243Z,22.37
2018-11-22T03:50:53.934Z,21.33
2018-11-22T03:53:21.138Z,23.12
2018-11-22T03:55:49.036Z,22.40
2018-11-22T03:58:16.856Z,24.02
2018-11-22T04:00:44.685Z,24.23
2018-11-22T04:03:12.194Z,22.10
2018-11-22T04:05:39.700Z,23.87
2018-11-22T04:08:07.212Z,21.20
2018-11-22T04:10:34.736Z,22.20
2018-11-22T04:13:02.237Z,23.20
2018-11-22T04:15:30.006Z,23.75
2018-11-22T04:17:57.376Z,24.82
2018-11-22T04:20:26.393Z,21.45
2018-11-22T04:22:53.894Z,23.10
2018-11-22T04:25:22.090Z,23.05
2018-11-22T04:27:50.487Z,23.98
2018-11-22T04:30:32.092Z,23.30
2018-11-22T04:32:59.899Z,21.45
2018-11-22T04:35:27.324Z,22.52
2018-11-22T04:37:55.220Z,24.07
2018-11-22T04:40:24.106Z,21.30
2018-11-22T04:42:52.544Z,22.35
2018-11-22T04:45:20.702Z,24.57
2018-11-22T04:47:49.949Z,23.00
2018-11-22T04:50:18.872Z,21.82
2018-11-22T04:52:46.684Z,23.35
2018-11-22T04:55:14.242Z,22.77
2018-11-22T04:57:41.802Z,23.18
2018-11-22T05:00:10.999Z,23.73
2018-11-22T05:02:38.801Z,21.62
2018-11-22T05:05:07.485Z,22.52
2018-11-22T05:07:35.035Z,22.67
2018-11-22T05:10:03.121Z,23.22
2018-11-22T05:12:30.618Z,25.52
2018-11-22T05:14:58.495Z,22.40
2018-11-22T05:17:26.291Z,22.05
2018-11-22T05:19:53.501Z,23.30
2018-11-22T05:22:21.019Z,22.93
2018-11-22T05:24:48.809Z,21.95
2018-11-22T05:27:16.654Z,22.25
2018-11-22T05:29:45.414Z,22.48
2018-11-22T05:32:12.893Z,20.82
2018-11-22T05:34:40.705Z,22.20
2018-11-22T05:37:09.005Z,22.80
2018-11-22T05:39:36.803Z,21.93
2018-11-22T05:42:04.743Z,23.02
2018-11-22T05:44:31.975Z,24.77
2018-11-22T05:47:02.633Z,23.65
2018-11-22T05:49:27.328Z,24.27
2018-11-22T05:51:55.395Z,24.32
2018-11-22T05:54:22.618Z,23.30
2018-11-22T05:56:50.410Z,22.87
2018-11-22T05:59:17.942Z,23.05
2018-11-22T06:01:46.039Z,23.50
2018-11-22T06:04:13.807Z,22.20
2018-11-22T06:06:41.598Z,23.85
2018-11-22T06:09:10.127Z,24.18
2018-11-22T06:11:37.961Z,23.40
2018-11-22T06:14:05.801Z,22.90
2018-11-22T06:16:33.291Z,21.97
2018-11-22T06:19:00.881Z,26.15
2018-11-22T06:21:28.076Z,24.12
2018-11-22T06:23:55.667Z,23.10
2018-11-22T06:26:23.453Z,22.90
2018-11-22T06:28:50.987Z,23.12
2018-11-22T06:31:18.260Z,24.85
2018-11-22T06:33:46.065Z,22.58
2018-11-22T06:36:13.593Z,22.25
2018-11-22T06:38:41.076Z,26.25
2018-11-22T06:41:08.328Z,23.20
2018-11-22T06:43:36.083Z,23.98
2018-11-22T06:46:04.017Z,22.58
2018-11-22T06:48:31.607Z,24.87
2018-11-22T06:50:59.504Z,24.98
2018-11-22T06:53:27.045Z,25.37
2018-11-22T06:55:54.298Z,26.75
2018-11-22T06:58:21.788Z,24.00
2018-11-22T07:00:49.885Z,24.25
2018-11-22T07:03:17.399Z,25.72
2018-11-22T07:05:45.258Z,24.10
2018-11-22T07:08:13.127Z,24.45
2018-11-22T07:10:40.716Z,23.40
2018-11-22T07:13:08.313Z,25.52
2018-11-22T07:15:36.370Z,22.85
2018-11-22T07:18:03.967Z,23.02
2018-11-22T07:20:32.361Z,23.83
2018-11-22T07:23:01.629Z,24.92
2018-11-22T07:25:29.254Z,27.05
2018-11-22T07:27:56.805Z,25.45
2018-11-22T07:30:28.559Z,25.90
2018-11-22T07:32:56.294Z,26.50
2018-11-22T07:35:25.126Z,26.65
2018-11-22T07:37:52.924Z,25.90
2018-11-22T07:40:21.937Z,25.55
2018-11-22T12:16:59.086Z,17.75
2018-11-22T12:19:27.079Z,17.25
2018-11-22T12:21:54.777Z,20.35
2018-11-22T12:24:22.506Z,18.57
2018-11-22T12:26:50.225Z,18.45
2018-11-22T12:29:17.959Z,19.37
2018-11-22T12:31:45.718Z,18.20
2018-11-22T12:34:15.053Z,18.40
2018-11-22T12:37:20.721Z,19.27
2018-11-22T12:39:48.390Z,20.97
2018-11-22T12:42:16.114Z,18.70
2018-11-22T12:44:43.853Z,16.48
2018-11-22T12:47:11.554Z,16.55
2018-11-22T12:49:39.320Z,18.82
2018-11-22T12:52:07.041Z,17.70
2018-11-22T12:54:35.411Z,19.25
2018-11-22T12:57:03.178Z,18.23
2018-11-22T12:59:30.863Z,18.85
2018-11-22T13:01:58.667Z,18.52
2018-11-22T13:04:26.385Z,17.98
2018-11-22T13:06:54.110Z,17.95
2018-11-22T13:09:22.871Z,17.77
2018-11-22T13:11:49.601Z,19.12
2018-11-22T13:14:17.290Z,18.15
2018-11-22T13:16:45.006Z,18.60
2018-11-22T13:19:12.715Z,16.93
2018-11-22T13:21:40.516Z,16.42
2018-11-22T13:24:08.241Z,17.17
2018-11-22T13:26:35.974Z,18.75
2018-11-22T13:29:03.750Z,18.37
2018-11-22T13:31:31.505Z,20.27
2018-11-22T13:33:59.226Z,21.55
2018-11-22T13:36:27.026Z,19.95
2018-11-22T13:38:54.742Z,19.42
2018-11-22T13:41:22.459Z,18.10
2018-11-22T13:43:50.198Z,18.27
2018-11-22T13:46:17.957Z,22.05
2018-11-22T13:48:45.682Z,20.50
2018-11-22T13:51:13.394Z,18.00
2018-11-22T13:53:41.195Z,20.10
2018-11-22T13:56:08.941Z,18.02
2018-11-22T13:58:36.782Z,16.95
2018-11-22T14:01:04.659Z,19.80
2018-11-22T14:03:32.398Z,18.65
2018-11-22T14:06:00.107Z,18.57
2018-11-22T14:08:27.845Z,16.20
2018-11-22T14:10:58.533Z,19.32
2018-11-22T14:13:23.330Z,17.98
2018-11-22T14:15:51.053Z,17.52
2018-11-22T14:18:18.862Z,18.70
2018-11-22T14:20:46.594Z,15.80
2018-11-22T14:23:14.330Z,21.57
2018-11-22T14:25:45.071Z,19.17
2018-11-22T14:28:09.878Z,17.60
2018-11-22T14:30:37.577Z,19.82
2018-11-22T14:33:05.367Z,18.15
2018-11-22T14:35:33.126Z,18.40
2018-11-22T14:38:00.849Z,18.57
2018-11-22T14:40:30.014Z,17.82
2018-11-22T14:42:57.818Z,18.95
2018-11-22T14:45:26.258Z,20.90
2018-11-22T14:47:55.239Z,19.80
2018-11-22T14:50:28.859Z,21.30
2018-11-22T14:53:06.566Z,22.40
2018-11-22T14:55:34.332Z,17.10
2018-11-22T14:58:02.062Z,18.10
2018-11-22T15:00:29.810Z,17.17
2018-11-22T15:02:57.533Z,17.98
2018-11-22T15:05:25.268Z,19.77
2018-11-22T15:07:53.246Z,19.48
2018-11-22T15:10:21.023Z,16.75
2018-11-22T15:12:49.230Z,19.25
2018-11-22T15:15:18.625Z,17.55
2018-11-22T15:17:46.406Z,18.65
2018-11-22T15:20:16.613Z,18.90
2018-11-22T15:22:45.239Z,18.55
2018-11-22T15:25:17.463Z,18.60
2018-11-22T15:27:45.476Z,18.37
2018-11-22T15:30:15.667Z,20.37
2018-11-22T15:32:43.406Z,18.80
2018-11-22T15:35:17.802Z,18.90
2018-11-22T15:37:45.972Z,21.97
2018-11-22T15:40:16.889Z,20.97
2018-11-22T15:42:45.602Z,17.35
2018-11-22T15:45:14.689Z,18.85
2018-11-22T15:47:42.773Z,17.75
2018-11-22T15:50:20.415Z,19.80
2018-11-22T15:52:48.190Z,17.70
2018-11-22T15:55:20.838Z,18.50
2018-11-22T15:57:45.706Z,20.92
2018-11-22T16:00:16.157Z,18.00
2018-11-22T16:02:44.810Z,18.23
2018-11-22T16:05:13.085Z,17.48
2018-11-22T16:07:41.550Z,15.80
2018-11-22T16:10:12.418Z,19.85
2018-11-22T16:12:40.134Z,17.95
2018-11-22T16:15:13.467Z,18.07
2018-11-22T16:17:41.740Z,17.98
2018-11-22T16:20:09.698Z,20.15
2018-11-22T16:22:37.573Z,19.30
2018-11-22T16:25:06.989Z,21.73
2018-11-22T16:27:34.787Z,19.82
2018-11-22T16:30:02.798Z,22.13
2018-11-22T16:32:30.562Z,21.52
2018-11-22T16:34:58.283Z,18.80
2018-11-22T16:37:26.007Z,23.40
2018-11-22T16:39:54.255Z,20.02
2018-11-22T16:42:21.530Z,20.50
2018-11-22T16:44:49.303Z,21.62
2018-11-22T16:47:17.150Z,18.40
2018-11-22T16:49:44.944Z,19.60
2018-11-22T16:52:12.748Z,17.70
2018-11-22T16:54:40.470Z,18.45
2018-11-22T16:57:08.231Z,20.85
2018-11-22T16:59:35.950Z,18.70
2018-11-22T17:02:03.730Z,18.17
2018-11-22T17:04:31.450Z,20.70
2018-11-22T17:06:59.222Z,19.48
2018-11-22T17:09:27.070Z,20.00
2018-11-22T17:11:54.841Z,18.32
2018-11-22T17:14:22.583Z,17.73
2018-11-22T17:16:50.345Z,18.48
2018-11-22T17:19:18.134Z,19.52
2018-11-22T17:21:45.909Z,18.50
2018-11-22T17:24:13.667Z,19.35
2018-11-22T17:26:41.398Z,18.55
2018-11-22T17:29:09.153Z,18.85
2018-11-22T17:31:36.958Z,18.12
2018-11-22T17:34:05.071Z,20.37
2018-11-22T17:36:32.842Z,19.77
2018-11-22T17:39:00.602Z,20.15
2018-11-22T17:41:28.314Z,19.20
2018-11-22T17:43:56.127Z,18.55
2018-11-22T17:46:23.860Z,19.30
2018-11-22T17:48:51.862Z,24.18
2018-11-22T17:51:19.619Z,19.60
2018-11-22T17:53:47.367Z,21.57
2018-11-22T17:56:15.086Z,20.57
2018-11-22T17:58:42.868Z,28.32
2018-11-22T18:01:14.548Z,26.15
2018-11-22T18:03:38.442Z,22.15
2018-11-22T18:06:06.226Z,23.02
2018-11-22T18:08:33.965Z,20.43
2018-11-22T18:11:01.707Z,19.73
2018-11-22T18:13:29.483Z,27.65
2018-11-22T18:15:58.240Z,20.35
2018-11-22T18:18:26.597Z,23.85
2018-11-22T18:20:54.366Z,20.62
2018-11-22T18:23:22.104Z,25.65
2018-11-22T18:25:49.847Z,24.70
2018-11-22T18:28:17.622Z,22.42
2018-11-22T18:30:45.408Z,22.65
2018-11-22T18:33:13.182Z,23.75
2018-11-22T18:35:40.939Z,19.32
2018-11-22T18:38:08.655Z,24.52
2018-11-22T18:40:37.930Z,22.00
2018-11-22T18:43:05.785Z,22.75
2018-11-22T18:45:34.906Z,22.30
2018-11-22T18:48:03.675Z,22.00
2018-11-22T18:50:32.490Z,21.65
2018-11-22T18:53:00.249Z,23.83
2018-11-22T18:55:28.050Z,21.33
2018-11-22T18:57:55.779Z,21.12
2018-11-22T19:00:31.567Z,21.35
2018-11-22T19:03:01.033Z,21.10
2018-11-22T19:05:28.858Z,20.75
2018-11-22T19:07:57.375Z,23.50
2018-11-22T19:10:26.327Z,22.60
2018-11-22T19:12:55.341Z,21.33
2018-11-22T19:15:24.689Z,22.85
2018-11-22T19:17:52.829Z,22.10
2018-11-22T19:20:23.170Z,22.65
2018-11-22T19:22:51.621Z,20.85
2018-11-22T19:25:19.984Z,21.05
2018-11-22T19:27:47.981Z,20.12
2018-11-22T19:30:17.997Z,21.23
2018-11-22T19:32:46.734Z,20.57
2018-11-22T19:35:15.571Z,21.07
2018-11-22T19:37:43.665Z,22.10
2018-11-22T19:40:15.918Z,20.40
2018-11-22T19:42:44.723Z,21.07
2018-11-22T19:45:14.099Z,19.67
2018-11-22T19:47:41.884Z,20.75
2018-11-22T19:50:12.009Z,19.23
2018-11-22T19:52:39.733Z,20.02
2018-11-22T19:55:10.088Z,20.37
2018-11-22T19:57:37.846Z,20.62
2018-11-22T20:00:08.007Z,21.45
2018-11-22T20:02:35.745Z,22.20
2018-11-22T20:05:03.722Z,19.60
2018-11-22T20:07:31.474Z,21.42
2018-11-22T20:09:59.198Z,20.65
2018-11-22T20:12:26.941Z,19.20
2018-11-22T20:14:54.678Z,21.60
2018-11-22T20:17:22.402Z,22.07
2018-11-22T20:19:50.221Z,22.07
2018-11-22T20:22:17.967Z,20.48
2018-11-22T20:24:45.726Z,21.10
2018-11-22T20:27:13.499Z,22.50
2018-11-22T20:29:41.238Z,21.12
2018-11-22T20:32:08.983Z,19.17
2018-11-22T20:34:36.750Z,20.15
2018-11-22T20:37:04.560Z,19.65
2018-11-22T20:39:32.315Z,19.17
2018-11-22T20:42:00.066Z,20.17
2018-11-22T20:44:27.838Z,19.37
2018-11-22T20:46:55.592Z,18.87
2018-11-22T20:49:23.433Z,19.85
2018-11-22T20:51:51.189Z,21.75
2018-11-22T20:54:18.937Z,20.80
2018-11-22T20:56:46.677Z,19.15
2018-11-22T20:59:14.430Z,19.30
2018-11-22T21:01:42.164Z,20.80
2018-11-22T21:04:09.910Z,21.95
2018-11-22T21:06:37.618Z,19.12
2018-11-22T21:09:08.688Z,21.65
2018-11-22T21:11:43.201Z,21.20
2018-11-22T21:14:05.643Z,18.87
2018-11-22T21:16:33.373Z,21.35
2018-11-22T21:19:01.127Z,18.62
2018-11-22T21:21:28.978Z,19.50
2018-11-22T21:23:56.726Z,22.25
2018-11-22T21:26:24.656Z,22.37
2018-11-22T21:28:52.742Z,23.65
2018-11-22T21:31:20.486Z,21.80
2018-11-22T21:33:48.971Z,21.70
2018-11-22T21:36:16.807Z,22.93
2018-11-22T21:38:44.770Z,23.35
2018-11-22T21:41:12.523Z,20.90
2018-11-22T21:43:40.451Z,25.40
2018-11-22T21:46:08.230Z,23.38
2018-11-22T21:48:35.958Z,22.20
2018-11-22T21:51:03.742Z,22.82
2018-11-22T21:53:31.891Z,20.70
2018-11-22T21:55:59.674Z,22.22
2018-11-22T21:58:27.431Z,20.45
2018-11-22T22:00:55.190Z,21.25
2018-11-22T22:03:22.954Z,22.15
2018-11-22T22:05:50.813Z,21.57
2018-11-22T22:08:18.541Z,23.70
2018-11-22T22:10:46.299Z,20.27
2018-11-22T22:13:14.059Z,21.77
2018-11-22T22:15:41.814Z,19.92
2018-11-22T22:18:09.650Z,19.85
2018-11-22T22:20:37.654Z,20.92
2018-11-22T22:23:05.487Z,19.07
2018-11-22T22:25:33.265Z,19.32
2018-11-22T22:28:01.418Z,17.92
2018-11-22T22:30:30.603Z,19.42
2018-11-22T22:33:01.005Z,22.62
2018-11-22T22:35:28.762Z,20.60
2018-11-22T22:37:56.474Z,19.20
2018-11-22T22:40:25.658Z,19.92
2018-11-22T22:42:54.471Z,19.57
2018-11-22T22:45:23.288Z,18.25
2018-11-22T22:47:51.550Z,20.45
2018-11-22T22:50:21.442Z,19.45
2018-11-22T22:52:50.476Z,17.90
2018-11-22T22:55:18.237Z,17.92
2018-11-22T22:57:45.998Z,19.73
2018-11-22T23:00:22.314Z,18.40
2018-11-22T23:02:52.294Z,17.15
2018-11-22T23:05:20.653Z,18.92
2018-11-22T23:07:48.473Z,20.32
2018-11-22T23:10:16.880Z,19.75
2018-11-22T23:12:44.647Z,18.20
2018-11-22T23:15:14.455Z,19.32
2018-11-22T23:17:42.522Z,17.15
2018-11-22T23:20:14.715Z,19.67
2018-11-22T23:22:42.984Z,18.48
2018-11-22T23:25:11.703Z,19.32
2018-11-22T23:27:39.835Z,19.12
2018-11-22T23:30:18.334Z,20.27
2018-11-22T23:32:47.133Z,18.05
2018-11-22T23:35:15.122Z,21.00
2018-11-22T23:37:43.165Z,19.42
2018-11-22T23:40:12.805Z,19.67
2018-11-22T23:42:40.858Z,19.12
2018-11-22T23:45:10.215Z,22.30
2018-11-22T23:47:38.533Z,20.65
2018-11-22T23:50:09.193Z,20.55
2018-11-22T23:52:36.930Z,19.45
2018-11-22T23:55:05.322Z,18.75
2018-11-22T23:57:33.023Z,20.57
